Time;durP1;ratioP1;P1;durP2;ratioP2;P2;SDS_P1;SDS_P2;PMS_P1;PMS_P2;Temp;Humidity;BMP_temperature;BMP_pressure;BME280_temperature;BME280_humidity;BME280_pressure;Samples;Min_cycle;Max_cycle;Signal;HPM_P1;HPM_P2
2023/09/07 00:02:06;;;;;;;6.35;5.75;;;20.50;1.00;;;;;;5086621;28;20064;-81
2023/09/07 00:04:33;;;;;;;6.93;6.15;;;20.40;74.00;;;;;;5068078;28;20051;-81
2023/09/07 00:07:00;;;;;;;6.88;6.20;;;20.40;99.90;;;;;;5069693;28;20577;-80
2023/09/07 00:09:27;;;;;;;6.20;5.60;;;20.30;99.90;;;;;;5086139;28;20533;-81
2023/09/07 00:11:54;;;;;;;6.18;5.55;;;20.40;99.90;;;;;;5069093;28;20147;-82
2023/09/07 00:14:21;;;;;;;5.97;5.35;;;20.40;99.90;;;;;;5067646;28;20074;-80
2023/09/07 00:16:48;;;;;;;5.78;5.18;;;20.40;99.90;;;;;;5085543;28;20530;-80
2023/09/07 00:19:14;;;;;;;8.68;6.70;;;20.40;99.90;;;;;;5085802;28;20105;-80
2023/09/07 00:21:41;;;;;;;6.07;5.47;;;20.40;99.90;;;;;;5085883;28;20109;-80
2023/09/07 00:24:10;;;;;;;6.20;5.60;;;20.40;99.90;;;;;;5083793;28;20510;-82
2023/09/07 00:26:37;;;;;;;5.82;5.22;;;20.40;99.90;;;;;;5082650;28;20081;-82
2023/09/07 00:29:04;;;;;;;5.95;4.93;;;20.40;99.90;;;;;;5049397;28;20036;-81
2023/09/07 00:31:30;;;;;;;5.65;5.10;;;20.30;99.90;;;;;;5085469;28;20056;-83
2023/09/07 00:33:58;;;;;;;4.90;4.43;;;20.30;99.90;;;;;;5067251;28;20543;-82
2023/09/07 00:36:25;;;;;;;5.15;4.65;;;20.30;99.90;;;;;;5085076;28;20135;-82
2023/09/07 00:38:51;;;;;;;5.00;4.50;;;20.30;99.90;;;;;;5068730;28;20047;-82
2023/09/07 00:41:18;;;;;;;5.30;4.68;;;20.20;99.90;;;;;;5064620;28;20490;-81
2023/09/07 00:43:45;;;;;;;4.95;4.13;;;20.20;99.90;;;;;;5066999;28;20044;-82
2023/09/07 00:46:12;;;;;;;4.47;4.07;;;20.20;99.90;;;;;;5086385;28;20054;-82
2023/09/07 00:48:39;;;;;;;5.40;4.90;;;20.20;99.90;;;;;;5069456;28;20083;-81
2023/09/07 00:51:06;;;;;;;4.60;4.15;;;20.20;99.90;;;;;;5053075;28;20039;-81
2023/09/07 00:53:33;;;;;;;5.32;4.35;;;20.20;99.90;;;;;;5052515;28;20143;-82
2023/09/07 00:56:00;;;;;;;6.13;5.07;;;20.20;99.90;;;;;;5069373;28;20486;-81
2023/09/07 00:58:27;;;;;;;6.85;4.90;;;20.20;99.90;;;;;;5084475;28;20109;-81
2023/09/07 01:00:55;;;;;;;6.55;5.00;;;20.20;99.90;;;;;;5086303;28;20047;-82
2023/09/07 01:03:22;;;;;;;4.88;3.90;;;20.30;99.90;;;;;;5064876;28;20047;-82
2023/09/07 01:06:02;;;;;;;5.30;4.80;;;20.30;99.90;;;;;;5066792;28;20056;-83
2023/09/07 01:08:36;;;;;;;4.63;3.75;;;20.30;99.90;;;;;;5065518;28;20057;-83
2023/09/07 01:11:13;;;;;;;5.18;4.43;;;20.30;99.90;;;;;;5082762;28;20070;-83
2023/09/07 01:13:41;;;;;;;4.43;4.00;;;20.20;99.90;;;;;;5051169;28;20067;-82
2023/09/07 01:16:12;;;;;;;5.45;4.30;;;20.20;99.90;;;;;;5081458;28;20450;-82
2023/09/07 01:18:39;;;;;;;4.53;4.07;;;20.20;99.90;;;;;;5085813;28;20097;-82
2023/09/07 01:21:09;;;;;;;5.78;5.00;;;20.10;99.90;;;;;;5051995;28;20048;-82
2023/09/07 01:23:36;;;;;;;5.03;4.53;;;20.10;99.90;;;;;;5050931;28;20052;-82
2023/09/07 01:26:04;;;;;;;5.53;4.47;;;20.10;99.90;;;;;;5038846;28;20447;-81
2023/09/07 01:28:31;;;;;;;5.65;4.65;;;20.10;99.90;;;;;;5067771;28;20048;-81
2023/09/07 01:30:58;;;;;;;5.47;4.70;;;20.10;99.90;;;;;;5051353;28;20117;-82
2023/09/07 01:33:25;;;;;;;4.93;4.20;;;20.10;99.90;;;;;;5062374;28;20101;-81
2023/09/07 01:35:52;;;;;;;5.18;4.55;;;20.10;99.90;;;;;;5050918;28;20499;-82
2023/09/07 01:38:19;;;;;;;5.22;4.72;;;20.10;99.90;;;;;;5051686;28;20056;-81
2023/09/07 01:40:46;;;;;;;4.70;3.63;;;20.10;99.90;;;;;;5070681;28;20124;-81
2023/09/07 01:43:13;;;;;;;5.00;4.00;;;20.00;99.90;;;;;;5085665;28;20060;-80
2023/09/07 01:45:40;;;;;;;4.50;4.07;;;20.00;99.90;;;;;;5049407;28;20053;-81
2023/09/07 01:48:11;;;;;;;4.85;4.35;;;20.00;99.90;;;;;;5082621;28;20085;-81
2023/09/07 01:50:38;;;;;;;5.22;4.47;;;20.10;99.90;;;;;;5068846;28;20044;-81
2023/09/07 01:53:05;;;;;;;5.22;4.72;;;20.10;99.90;;;;;;5051607;28;20040;-81
2023/09/07 01:55:32;;;;;;;5.35;4.72;;;20.00;99.90;;;;;;5068414;28;20052;-81
2023/09/07 01:57:59;;;;;;;6.05;5.10;;;20.10;99.90;;;;;;5050998;28;20462;-79
2023/09/07 02:00:26;;;;;;;6.63;5.50;;;20.10;99.90;;;;;;5068705;28;20051;-81
2023/09/07 02:02:53;;;;;;;7.88;7.10;;;20.10;99.90;;;;;;5050752;28;20051;-81
2023/09/07 02:05:21;;;;;;;6.95;6.25;;;20.10;99.90;;;;;;5051768;28;20055;-80
2023/09/07 02:07:49;;;;;;;7.25;6.10;;;20.20;1.00;;;;;;5068771;28;20995;-81
2023/09/07 02:10:16;;;;;;;6.50;5.57;;;20.10;99.90;;;;;;5052447;28;20051;-81
2023/09/07 02:12:45;;;;;;;5.18;4.68;;;20.10;99.90;;;;;;5067845;28;20414;-81
2023/09/07 02:15:12;;;;;;;4.90;4.40;;;20.10;99.90;;;;;;5083672;28;20473;-81
2023/09/07 02:17:39;;;;;;;4.35;3.70;;;20.10;99.90;;;;;;5051124;28;20438;-81
2023/09/07 02:20:10;;;;;;;4.72;4.28;;;20.10;1.00;;;;;;5068044;28;20056;-81
2023/09/07 02:22:38;;;;;;;5.00;4.30;;;20.10;1.00;;;;;;5084377;28;20056;-80
2023/09/07 02:25:05;;;;;;;5.88;4.85;;;20.10;1.00;;;;;;5066948;28;20040;-80
2023/09/07 02:27:33;;;;;;;6.78;5.70;;;20.10;1.00;;;;;;5084986;28;20507;-81
2023/09/07 02:29:59;;;;;;;5.95;5.38;;;20.10;1.00;;;;;;5049963;28;20086;-81
2023/09/07 02:32:26;;;;;;;7.38;6.15;;;20.10;1.00;;;;;;5050900;28;20420;-81
2023/09/07 02:34:54;;;;;;;5.90;5.30;;;20.10;1.00;;;;;;5067592;28;20043;-81
2023/09/07 02:37:20;;;;;;;6.25;5.65;;;20.10;1.00;;;;;;5084758;28;20639;-81
2023/09/07 02:39:48;;;;;;;6.85;5.63;;;20.00;1.00;;;;;;5067920;28;20044;-81
2023/09/07 02:42:15;;;;;;;6.30;5.07;;;20.00;1.00;;;;;;5067545;28;20052;-81
2023/09/07 02:44:42;;;;;;;5.30;4.70;;;20.00;1.00;;;;;;5049814;28;20048;-81
2023/09/07 02:47:09;;;;;;;6.68;5.88;;;20.00;1.00;;;;;;5067995;28;20105;-81
2023/09/07 02:49:38;;;;;;;6.03;5.43;;;20.00;1.00;;;;;;5067829;28;20046;-81
2023/09/07 02:52:05;;;;;;;6.70;6.00;;;19.90;1.00;;;;;;5068185;28;20155;-81
2023/09/07 02:54:32;;;;;;;6.45;5.82;;;19.90;1.00;;;;;;5067326;28;20043;-80
2023/09/07 02:56:59;;;;;;;7.28;6.57;;;19.90;1.00;;;;;;5052737;28;20488;-81
2023/09/07 02:59:26;;;;;;;7.30;6.60;;;19.80;1.00;;;;;;5070660;28;20101;-81
2023/09/07 03:01:52;;;;;;;6.63;5.93;;;19.80;1.00;;;;;;5055698;28;20054;-81
2023/09/07 03:04:19;;;;;;;6.88;6.03;;;19.80;1.00;;;;;;5070961;28;20052;-81
2023/09/07 03:06:46;;;;;;;7.80;6.97;;;19.70;1.00;;;;;;5055240;28;20109;-82
2023/09/07 03:09:14;;;;;;;7.57;6.55;;;19.60;1.00;;;;;;5072046;28;20500;-81
2023/09/07 03:11:40;;;;;;;7.05;6.20;;;19.60;1.00;;;;;;5071806;28;20075;-81
2023/09/07 03:14:07;;;;;;;7.35;6.13;;;19.50;1.00;;;;;;5069672;28;20483;-80
2023/09/07 03:16:34;;;;;;;7.63;6.82;;;19.40;1.00;;;;;;5071756;28;20052;-81
2023/09/07 03:19:01;;;;;;;6.68;6.03;;;19.40;1.00;;;;;;5071384;28;20121;-81
2023/09/07 03:21:29;;;;;;;6.93;5.97;;;19.40;1.00;;;;;;5088677;28;20048;-81
2023/09/07 03:23:57;;;;;;;7.20;6.32;;;19.40;1.00;;;;;;5070899;28;20058;-81
2023/09/07 03:26:24;;;;;;;7.72;7.00;;;19.40;1.00;;;;;;5054633;28;20470;-80
2023/09/07 03:28:52;;;;;;;7.45;6.38;;;19.30;1.00;;;;;;5070491;28;20054;-81
2023/09/07 03:31:19;;;;;;;7.30;6.60;;;19.30;1.00;;;;;;5071534;28;20059;-81
2023/09/07 03:33:46;;;;;;;8.10;6.10;;;19.20;1.00;;;;;;5071371;28;20040;-81
2023/09/07 03:36:16;;;;;;;6.68;6.03;;;19.20;1.00;;;;;;5054870;28;20059;-80
2023/09/07 03:38:43;;;;;;;7.47;6.25;;;19.10;1.00;;;;;;5055637;28;20144;-81
2023/09/07 03:41:10;;;;;;;7.15;6.45;;;19.10;1.00;;;;;;5070284;28;20127;-80
2023/09/07 03:43:37;;;;;;;7.70;6.53;;;19.10;1.00;;;;;;5069749;28;20421;-81
2023/09/07 03:46:03;;;;;;;6.95;6.18;;;19.10;1.00;;;;;;5088006;28;20130;-80
2023/09/07 03:48:31;;;;;;;6.95;6.07;;;19.00;1.00;;;;;;5071260;28;20048;-81
2023/09/07 03:50:58;;;;;;;6.75;5.97;;;19.00;1.00;;;;;;5088079;28;20140;-81
2023/09/07 03:53:25;;;;;;;7.43;5.60;;;18.90;1.00;;;;;;5054300;28;20044;-80
2023/09/07 03:55:52;;;;;;;7.63;6.65;;;18.90;1.00;;;;;;5088515;28;20048;-81
2023/09/07 03:58:19;;;;;;;7.07;6.05;;;18.90;1.00;;;;;;5069991;28;20052;-81
2023/09/07 04:00:46;;;;;;;6.90;6.20;;;18.80;1.00;;;;;;5054329;28;20051;-81
2023/09/07 04:03:13;;;;;;;6.93;6.03;;;18.80;1.00;;;;;;5054335;28;20075;-81
2023/09/07 04:05:41;;;;;;;6.63;5.93;;;18.80;1.00;;;;;;5087905;28;20040;-81
2023/09/07 04:08:08;;;;;;;7.03;6.20;;;18.80;1.00;;;;;;5074330;28;20108;-80
2023/09/07 04:10:38;;;;;;;6.55;5.70;;;18.80;1.00;;;;;;5071317;28;20044;-81
2023/09/07 04:13:06;;;;;;;6.78;6.07;;;18.80;1.00;;;;;;5070067;28;21491;-81
2023/09/07 04:15:43;;;;;;;6.35;5.75;;;18.70;1.00;;;;;;5087893;28;20097;-80
2023/09/07 04:18:12;;;;;;;7.70;6.93;;;18.70;1.00;;;;;;5070515;28;20044;-80
2023/09/07 04:20:39;;;;;;;6.55;5.88;;;18.70;1.00;;;;;;5086691;28;20437;-81
2023/09/07 04:23:06;;;;;;;6.88;6.07;;;18.70;1.00;;;;;;5053795;28;20055;-80
2023/09/07 04:25:33;;;;;;;8.75;7.03;;;18.70;1.00;;;;;;5071250;28;20079;-80
2023/09/07 04:28:00;;;;;;;6.80;6.10;;;18.60;1.00;;;;;;5053061;28;20113;-80
2023/09/07 04:30:27;;;;;;;6.70;5.30;;;18.60;1.00;;;;;;5070137;28;20055;-80
2023/09/07 04:32:54;;;;;;;6.82;5.88;;;18.60;1.00;;;;;;5087468;28;20106;-82
2023/09/07 04:35:21;;;;;;;7.05;5.75;;;18.60;1.00;;;;;;5067926;28;20128;-82
2023/09/07 04:37:48;;;;;;;6.05;5.22;;;18.50;1.00;;;;;;5079072;28;20056;-80
2023/09/07 04:40:15;;;;;;;5.85;5.22;;;18.50;1.00;;;;;;5082075;28;20048;-81
2023/09/07 04:42:41;;;;;;;6.65;5.95;;;18.50;1.00;;;;;;5066285;28;20458;-81
2023/09/07 04:45:09;;;;;;;6.80;6.03;;;18.50;1.00;;;;;;5070882;28;20564;-81
2023/09/07 04:47:38;;;;;;;6.25;5.50;;;18.40;1.00;;;;;;5048785;28;20053;-82
2023/09/07 04:50:06;;;;;;;6.07;5.47;;;18.40;1.50;;;;;;5066059;28;20051;-82
2023/09/07 04:52:34;;;;;;;6.18;5.35;;;18.40;2.00;;;;;;5084755;28;20055;-81
2023/09/07 04:55:02;;;;;;;5.00;4.50;;;18.40;4.10;;;;;;5068655;28;20048;-82
2023/09/07 04:57:30;;;;;;;5.18;4.68;;;18.40;18.50;;;;;;5049303;28;20043;-81
2023/09/07 04:59:57;;;;;;;5.47;4.85;;;18.40;56.80;;;;;;5061007;28;20048;-81
2023/09/07 05:02:25;;;;;;;6.10;5.50;;;18.40;73.40;;;;;;5053843;28;20129;-80
2023/09/07 05:04:52;;;;;;;7.07;6.38;;;18.30;83.10;;;;;;5078263;28;20573;-81
2023/09/07 05:07:19;;;;;;;7.43;6.32;;;18.30;99.90;;;;;;5085748;28;20051;-81
2023/09/07 05:09:46;;;;;;;6.68;5.97;;;18.30;99.90;;;;;;5081108;28;20608;-80
2023/09/07 05:12:14;;;;;;;6.45;5.82;;;18.30;99.90;;;;;;5082165;28;20590;-81
2023/09/07 05:14:41;;;;;;;6.18;5.55;;;18.30;99.90;;;;;;5064245;28;20149;-81
2023/09/07 05:17:08;;;;;;;6.10;5.20;;;18.30;99.90;;;;;;5081009;28;20056;-80
2023/09/07 05:19:34;;;;;;;6.68;5.97;;;18.40;99.90;;;;;;5082959;28;20055;-80
2023/09/07 05:22:02;;;;;;;6.93;5.80;;;18.40;99.90;;;;;;5083097;28;20960;-81
2023/09/07 05:24:29;;;;;;;5.75;5.15;;;18.40;99.90;;;;;;5080933;28;20064;-81
2023/09/07 05:26:56;;;;;;;5.90;5.30;;;18.40;99.90;;;;;;5078289;28;20471;-80
2023/09/07 05:29:22;;;;;;;5.63;5.10;;;18.40;99.90;;;;;;5062122;28;20487;-81
2023/09/07 05:31:49;;;;;;;5.85;5.25;;;18.50;99.90;;;;;;5076773;28;20169;-79
2023/09/07 05:34:16;;;;;;;5.45;4.85;;;18.50;99.90;;;;;;5085067;28;20087;-80
2023/09/07 05:36:43;;;;;;;5.55;4.63;;;18.50;99.90;;;;;;5052296;28;20044;-80
2023/09/07 05:39:10;;;;;;;4.78;4.15;;;18.60;99.90;;;;;;5083084;28;20044;-80
2023/09/07 05:41:37;;;;;;;6.00;4.80;;;18.60;99.90;;;;;;5085560;28;20069;-81
2023/09/07 05:44:04;;;;;;;5.90;5.30;;;18.60;99.90;;;;;;5082293;28;20129;-81
2023/09/07 05:46:31;;;;;;;6.25;5.25;;;18.60;99.90;;;;;;5081151;28;20544;-81
2023/09/07 05:48:58;;;;;;;5.28;4.70;;;18.60;99.90;;;;;;5097735;28;20056;-80
2023/09/07 05:51:25;;;;;;;4.90;4.40;;;18.60;99.90;;;;;;5071980;28;20041;-81
2023/09/07 05:53:52;;;;;;;5.13;4.50;;;18.60;99.90;;;;;;5078867;28;20083;-82
2023/09/07 05:56:18;;;;;;;4.28;3.80;;;18.60;99.90;;;;;;5075868;28;20501;-81
2023/09/07 05:58:45;;;;;;;6.22;4.97;;;18.70;99.90;;;;;;5051511;28;20071;-81
2023/09/07 06:01:12;;;;;;;4.90;4.40;;;18.70;99.90;;;;;;5080041;28;20491;-81
2023/09/07 06:03:39;;;;;;;5.45;4.82;;;18.70;99.90;;;;;;5044985;28;20134;-81
2023/09/07 06:06:06;;;;;;;6.03;5.43;;;18.70;99.90;;;;;;5061973;28;20072;-81
2023/09/07 06:08:33;;;;;;;6.03;5.22;;;18.70;99.90;;;;;;5061330;28;20097;-81
2023/09/07 06:11:00;;;;;;;5.93;5.28;;;18.80;99.90;;;;;;5077405;28;20415;-81
2023/09/07 06:13:27;;;;;;;5.97;5.38;;;18.80;99.90;;;;;;5081394;28;20040;-81
2023/09/07 06:15:54;;;;;;;4.82;4.32;;;18.80;99.90;;;;;;5084742;28;20055;-80
2023/09/07 06:18:21;;;;;;;5.38;4.85;;;18.90;99.90;;;;;;5061288;28;24170;-80
2023/09/07 06:20:48;;;;;;;5.18;4.65;;;19.00;99.90;;;;;;5079597;28;20063;-80
2023/09/07 06:23:14;;;;;;;5.18;4.63;;;19.00;99.90;;;;;;5059121;28;20059;-82
2023/09/07 06:25:41;;;;;;;6.30;5.65;;;18.90;99.90;;;;;;5075053;28;20056;-80
2023/09/07 06:28:08;;;;;;;8.20;7.13;;;19.00;99.90;;;;;;5058594;28;20835;-80
2023/09/07 06:30:35;;;;;;;7.53;6.75;;;19.00;99.90;;;;;;5078287;28;20064;-80
2023/09/07 06:33:02;;;;;;;8.05;6.70;;;19.00;99.90;;;;;;5064437;28;20083;-80
2023/09/07 06:35:29;;;;;;;8.02;7.03;;;19.00;99.90;;;;;;5050374;28;20052;-80
2023/09/07 06:37:56;;;;;;;6.50;5.90;;;19.00;99.90;;;;;;5059830;28;20149;-80
2023/09/07 06:40:25;;;;;;;6.72;6.05;;;19.10;99.90;;;;;;5060169;28;20411;-81
2023/09/07 06:42:53;;;;;;;6.05;5.28;;;19.10;99.90;;;;;;5067603;28;20141;-81
2023/09/07 06:45:23;;;;;;;4.97;3.80;;;19.20;99.90;;;;;;5067044;28;20076;-81
2023/09/07 06:47:51;;;;;;;5.93;5.32;;;19.30;99.90;;;;;;5081185;28;20337;-81
2023/09/07 06:50:18;;;;;;;4.85;4.20;;;19.30;99.90;;;;;;5043927;28;20052;-81
2023/09/07 06:52:44;;;;;;;5.95;5.18;;;19.30;99.90;;;;;;5064564;28;20117;-81
2023/09/07 06:55:11;;;;;;;6.75;5.82;;;19.40;99.90;;;;;;5081835;28;20040;-81
2023/09/07 06:57:38;;;;;;;5.72;5.13;;;19.40;99.90;;;;;;5068052;28;20383;-80
2023/09/07 07:00:06;;;;;;;5.72;5.18;;;19.50;99.90;;;;;;5084838;28;20495;-81
2023/09/07 07:02:34;;;;;;;5.88;5.13;;;19.50;99.90;;;;;;5081802;28;20052;-80
2023/09/07 07:05:02;;;;;;;5.28;4.78;;;19.50;99.90;;;;;;5064487;28;20048;-81
2023/09/07 07:07:29;;;;;;;7.53;5.97;;;19.50;99.90;;;;;;5081777;28;20051;-81
2023/09/07 07:09:56;;;;;;;6.15;5.55;;;19.50;99.90;;;;;;5082772;28;20052;-81
2023/09/07 07:12:23;;;;;;;7.05;6.30;;;19.50;99.90;;;;;;5084598;28;20414;-81
2023/09/07 07:14:49;;;;;;;6.35;5.57;;;19.50;99.90;;;;;;5083594;28;20368;-81
2023/09/07 07:17:16;;;;;;;6.90;6.20;;;19.50;99.90;;;;;;5051666;28;20132;-80
2023/09/07 07:19:43;;;;;;;5.40;4.43;;;19.60;99.90;;;;;;5067888;28;20147;-81
2023/09/07 07:22:12;;;;;;;5.82;5.28;;;19.50;99.90;;;;;;5067983;28;20067;-81
2023/09/07 07:24:40;;;;;;;6.70;5.95;;;19.60;99.90;;;;;;5067336;28;20056;-81
2023/09/07 07:27:07;;;;;;;6.00;5.40;;;19.60;99.90;;;;;;5084762;28;20079;-81
2023/09/07 07:29:34;;;;;;;7.53;6.70;;;19.60;99.90;;;;;;5066399;28;20299;-80
2023/09/07 07:32:00;;;;;;;7.15;6.40;;;19.70;99.90;;;;;;5084048;28;20087;-80
2023/09/07 07:34:27;;;;;;;6.88;6.18;;;19.70;99.90;;;;;;5084387;28;20052;-82
2023/09/07 07:36:54;;;;;;;6.53;5.93;;;19.70;99.90;;;;;;5068161;28;20572;-82
2023/09/07 07:39:21;;;;;;;5.43;4.90;;;19.80;99.90;;;;;;5050584;28;20063;-82
2023/09/07 07:41:48;;;;;;;4.80;4.35;;;19.90;99.90;;;;;;5067432;28;20048;-82
2023/09/07 07:44:15;;;;;;;4.65;3.90;;;20.00;99.90;;;;;;5081762;28;20052;-82
2023/09/07 07:46:42;;;;;;;5.20;4.63;;;20.00;99.90;;;;;;5079172;28;20086;-81
2023/09/07 07:49:09;;;;;;;4.82;4.30;;;20.10;99.90;;;;;;5071494;28;20198;-82
2023/09/07 07:51:37;;;;;;;5.15;4.65;;;20.20;96.10;;;;;;5088234;28;20491;-82
2023/09/07 07:54:03;;;;;;;7.97;7.07;;;20.20;99.50;;;;;;5087830;28;20063;-82
2023/09/07 07:56:31;;;;;;;8.02;7.25;;;20.20;90.50;;;;;;5071489;28;20056;-82
2023/09/07 07:58:59;;;;;;;8.05;6.10;;;20.30;89.20;;;;;;5070314;28;20052;-82
2023/09/07 08:01:26;;;;;;;9.23;8.32;;;20.30;79.40;;;;;;5089064;28;20305;-82
2023/09/07 08:03:53;;;;;;;7.80;7.00;;;20.30;83.00;;;;;;5087565;28;20067;-82
2023/09/07 08:06:20;;;;;;;7.55;6.85;;;20.40;87.00;;;;;;5071158;28;20410;-82
2023/09/07 08:08:47;;;;;;;7.88;6.93;;;20.50;80.80;;;;;;5089385;28;20055;-82
2023/09/07 08:11:14;;;;;;;7.88;7.18;;;20.60;79.80;;;;;;5071569;28;20048;-82
2023/09/07 08:13:41;;;;;;;9.73;8.73;;;20.60;66.50;;;;;;5087806;28;20102;-82
2023/09/07 08:16:08;;;;;;;6.80;6.15;;;20.70;54.30;;;;;;5087295;28;20048;-81
2023/09/07 08:18:40;;;;;;;6.13;5.50;;;20.80;42.20;;;;;;5087643;28;20475;-82
2023/09/07 08:21:07;;;;;;;7.32;6.55;;;20.90;22.10;;;;;;5061986;28;20503;-82
2023/09/07 08:23:34;;;;;;;7.30;6.60;;;20.90;18.10;;;;;;5078397;28;20129;-82
2023/09/07 08:26:01;;;;;;;6.65;6.05;;;21.00;1.00;;;;;;5081537;28;20593;-82
2023/09/07 08:28:28;;;;;;;7.78;6.97;;;21.10;1.00;;;;;;5079263;28;20066;-82
2023/09/07 08:30:58;;;;;;;9.02;8.15;;;21.20;1.00;;;;;;5063350;28;20491;-82
2023/09/07 08:33:29;;;;;;;8.80;7.97;;;21.20;1.00;;;;;;5074917;28;20155;-82
2023/09/07 08:35:57;;;;;;;11.35;10.25;;;21.30;1.00;;;;;;5074554;28;20512;-81
2023/09/07 08:38:25;;;;;;;8.93;8.07;;;21.40;1.00;;;;;;5061740;28;20691;-82
2023/09/07 08:40:56;;;;;;;10.70;9.60;;;21.50;1.00;;;;;;5081131;28;20051;-82
2023/09/07 08:43:23;;;;;;;8.75;7.85;;;21.60;1.00;;;;;;5060251;28;20167;-82
2023/09/07 08:46:00;;;;;;;7.95;7.25;;;21.70;99.90;;;;;;5059350;28;20135;-83
2023/09/07 08:48:27;;;;;;;7.40;6.63;;;21.70;99.90;;;;;;5075395;28;20052;-82
2023/09/07 08:50:54;;;;;;;5.13;4.63;;;21.80;99.90;;;;;;5079012;28;20052;-83
2023/09/07 08:53:21;;;;;;;4.95;4.40;;;21.90;99.90;;;;;;5080422;28;20056;-81
2023/09/07 08:55:48;;;;;;;4.38;3.45;;;22.00;99.90;;;;;;5081599;28;20048;-82
2023/09/07 08:58:15;;;;;;;6.05;5.45;;;22.10;99.90;;;;;;5080859;28;20137;-82
2023/09/07 09:00:43;;;;;;;5.82;5.22;;;22.20;99.90;;;;;;5064638;28;20044;-78
2023/09/07 09:03:10;;;;;;;8.35;7.55;;;22.30;99.90;;;;;;5071513;28;20051;-77
2023/09/07 09:05:41;;;;;;;11.52;10.35;;;22.30;99.90;;;;;;5082899;28;20113;-76
2023/09/07 09:08:08;;;;;;;8.15;7.35;;;22.30;99.90;;;;;;5084178;28;20048;-76
2023/09/07 09:10:40;;;;;;;5.35;4.45;;;22.40;99.90;;;;;;5084172;28;20756;-77
2023/09/07 09:13:07;;;;;;;5.50;5.00;;;22.50;99.90;;;;;;5082232;28;20502;-77
2023/09/07 09:15:34;;;;;;;4.45;4.05;;;22.60;23.10;;;;;;5086186;28;20538;-77
2023/09/07 09:18:12;;;;;;;7.30;6.60;;;22.70;1.00;;;;;;5085718;28;20117;-77
2023/09/07 09:20:39;;;;;;;6.10;5.43;;;22.90;1.00;;;;;;5085657;28;20044;-77
2023/09/07 09:23:07;;;;;;;7.63;6.85;;;23.00;99.90;;;;;;5084206;28;20117;-77
2023/09/07 09:25:34;;;;;;;5.72;5.15;;;23.10;25.50;;;;;;5083387;28;20051;-77
2023/09/07 09:28:00;;;;;;;7.65;6.95;;;23.20;1.00;;;;;;5082547;28;20074;-78
2023/09/07 09:30:27;;;;;;;6.68;6.07;;;23.30;99.90;;;;;;5087348;28;20044;-77
2023/09/07 09:32:55;;;;;;;5.88;5.28;;;23.40;99.90;;;;;;5085565;28;20128;-76
2023/09/07 09:35:23;;;;;;;7.45;6.70;;;23.50;6.30;;;;;;5085809;28;20113;-77
2023/09/07 09:37:50;;;;;;;7.00;6.40;;;23.70;99.90;;;;;;5082426;28;20051;-77
2023/09/07 09:40:17;;;;;;;7.38;6.22;;;23.70;99.90;;;;;;5082301;28;20048;-77
2023/09/07 09:42:44;;;;;;;8.35;7.55;;;23.80;1.00;;;;;;5068641;28;20040;-76
2023/09/07 09:45:11;;;;;;;6.78;6.18;;;23.90;16.40;;;;;;5076819;28;20067;-77
2023/09/07 09:47:39;;;;;;;5.20;4.70;;;24.00;99.90;;;;;;5067784;28;20074;-77
2023/09/07 09:50:07;;;;;;;4.78;4.28;;;24.20;99.90;;;;;;5054281;28;20052;-77
2023/09/07 09:52:35;;;;;;;4.85;4.38;;;24.30;99.90;;;;;;5065450;28;20048;-77
2023/09/07 09:55:12;;;;;;;4.05;3.15;;;24.40;99.90;;;;;;5085192;28;20155;-77
2023/09/07 09:57:40;;;;;;;2.85;2.50;;;24.50;1.00;;;;;;5083092;28;20088;-78
2023/09/07 10:00:25;;;;;;;4.03;3.58;;;24.70;1.00;;;;;;5082153;28;20052;-77
2023/09/07 10:03:04;;;;;;;4.70;4.30;;;24.80;1.00;;;;;;5083651;28;20552;-77
2023/09/07 10:05:31;;;;;;;4.78;3.97;;;25.00;1.00;;;;;;5086659;28;20067;-77
2023/09/07 10:08:14;;;;;;;4.75;4.25;;;25.00;1.00;;;;;;5068289;28;20455;-77
2023/09/07 10:10:42;;;;;;;3.50;3.20;;;25.20;1.00;;;;;;5068627;28;20512;-77
2023/09/07 10:13:08;;;;;;;3.85;3.45;;;25.30;1.00;;;;;;5066489;28;20044;-77
2023/09/07 10:15:36;;;;;;;4.75;4.10;;;25.40;1.00;;;;;;5068434;28;20048;-77
2023/09/07 10:18:07;;;;;;;6.10;5.28;;;25.50;1.00;;;;;;5084206;28;20074;-77
2023/09/07 10:21:06;;;;;;;4.90;4.40;;;25.50;1.00;;;;;;5084957;28;20047;-77
2023/09/07 10:23:38;;;;;;;6.03;5.43;;;25.50;1.00;;;;;;5082171;28;20058;-77
2023/09/07 10:26:05;;;;;;;4.93;4.43;;;25.70;1.00;;;;;;5081780;28;20059;-77
2023/09/07 10:28:33;;;;;;;5.70;5.20;;;25.80;1.00;;;;;;5080881;28;20059;-77
2023/09/07 10:31:04;;;;;;;6.03;5.43;;;25.80;1.00;;;;;;5086167;28;20098;-77
2023/09/07 10:33:32;;;;;;;6.88;5.40;;;25.90;1.00;;;;;;5067364;28;20083;-77
2023/09/07 10:36:01;;;;;;;6.68;5.78;;;26.00;1.00;;;;;;5085427;28;20127;-77
2023/09/07 10:38:28;;;;;;;3.80;3.50;;;26.00;1.00;;;;;;5080905;28;20074;-76
2023/09/07 10:40:58;;;;;;;4.43;4.00;;;26.20;1.00;;;;;;5081512;28;20052;-77
2023/09/07 10:43:29;;;;;;;4.85;4.35;;;26.30;1.00;;;;;;5083352;28;20066;-77
2023/09/07 10:45:57;;;;;;;4.75;3.63;;;26.40;99.90;;;;;;5086241;28;20055;-76
2023/09/07 10:48:25;;;;;;;4.13;3.72;;;26.60;99.90;;;;;;5085985;28;20123;-76
2023/09/07 10:50:52;;;;;;;4.35;3.10;;;26.70;99.90;;;;;;5084481;28;20149;-77
2023/09/07 10:53:30;;;;;;;2.55;2.20;;;26.80;99.90;;;;;;5085223;28;20146;-78
2023/09/07 10:55:59;;;;;;;4.30;3.90;;;27.00;99.90;;;;;;5067169;28;20131;-78
2023/09/07 10:58:27;;;;;;;4.43;4.00;;;27.10;99.90;;;;;;5059168;28;20080;-77
2023/09/07 11:00:57;;;;;;;3.47;3.17;;;27.10;99.90;;;;;;5076231;28;20067;-78
2023/09/07 11:03:27;;;;;;;3.97;3.53;;;27.30;99.90;;;;;;5060623;28;20113;-78
2023/09/07 11:05:57;;;;;;;4.30;3.90;;;27.40;99.90;;;;;;5061286;28;20048;-78
2023/09/07 11:08:24;;;;;;;4.90;4.40;;;27.40;99.90;;;;;;5078088;28;20057;-77
2023/09/07 11:10:54;;;;;;;4.28;3.88;;;27.50;99.90;;;;;;5077661;28;20095;-78
2023/09/07 11:13:22;;;;;;;3.95;3.55;;;27.50;99.90;;;;;;5076315;28;20116;-76
2023/09/07 11:15:49;;;;;;;4.30;3.50;;;27.70;99.90;;;;;;5061332;28;20063;-78
2023/09/07 11:18:21;;;;;;;2.60;2.20;;;27.80;99.90;;;;;;5079519;28;20444;-77
2023/09/07 11:20:48;;;;;;;3.25;2.70;;;27.90;99.90;;;;;;5081508;28;20460;-76
2023/09/07 11:23:17;;;;;;;3.90;2.80;;;28.10;99.90;;;;;;5081664;28;20129;-77
2023/09/07 11:25:43;;;;;;;3.20;2.83;;;28.20;99.90;;;;;;5047628;28;20052;-77
2023/09/07 11:28:11;;;;;;;4.38;2.63;;;28.40;99.90;;;;;;5080866;28;20117;-76
2023/09/07 11:30:49;;;;;;;4.63;3.60;;;28.60;99.90;;;;;;5082103;28;20101;-77
2023/09/07 11:33:16;;;;;;;3.63;3.15;;;28.70;99.90;;;;;;5080704;28;20056;-77
2023/09/07 11:35:43;;;;;;;2.58;2.38;;;28.80;99.90;;;;;;5061911;28;20501;-77
2023/09/07 11:38:12;;;;;;;3.35;2.97;;;29.10;99.90;;;;;;5075465;28;20048;-78
2023/09/07 11:40:42;;;;;;;3.55;2.97;;;29.30;99.90;;;;;;5082487;28;20052;-77
2023/09/07 11:43:22;;;;;;;2.83;2.20;;;29.30;99.90;;;;;;5076609;28;20076;-77
2023/09/07 11:45:49;;;;;;;3.22;2.92;;;29.50;99.90;;;;;;5076875;28;20156;-78
2023/09/07 11:48:16;;;;;;;2.63;2.42;;;29.70;99.90;;;;;;5069268;28;20868;-77
2023/09/07 11:50:43;;;;;;;2.55;2.13;;;29.80;99.90;;;;;;5059819;28;20073;-77
2023/09/07 11:53:10;;;;;;;2.80;2.30;;;30.10;99.90;;;;;;5076283;28;20465;-77
2023/09/07 11:55:37;;;;;;;2.05;1.60;;;30.40;99.90;;;;;;5079135;28;20685;-79
2023/09/07 11:58:07;;;;;;;2.10;1.70;;;30.80;99.90;;;;;;5079846;28;20163;-77
2023/09/07 12:00:34;;;;;;;1.70;1.52;;;31.10;99.90;;;;;;5077786;28;20487;-78
2023/09/07 12:03:01;;;;;;;1.45;1.33;;;31.40;99.90;;;;;;5075369;28;20040;-77
2023/09/07 12:05:27;;;;;;;1.63;1.30;;;31.60;99.90;;;;;;5048218;28;20055;-77
2023/09/07 12:07:54;;;;;;;1.60;1.40;;;32.00;99.90;;;;;;5078839;28;20138;-77
2023/09/07 12:10:21;;;;;;;1.70;1.52;;;32.30;99.90;;;;;;5076770;28;20540;-77
2023/09/07 12:12:48;;;;;;;1.98;1.80;;;32.40;99.90;;;;;;5083440;28;20067;-77
2023/09/07 12:15:15;;;;;;;1.83;1.65;;;32.50;99.90;;;;;;5084040;28;20498;-77
2023/09/07 12:17:42;;;;;;;1.67;1.58;;;32.60;99.90;;;;;;5084487;28;20078;-77
2023/09/07 12:20:10;;;;;;;1.58;1.33;;;32.70;99.90;;;;;;5079508;28;20464;-77
2023/09/07 12:22:37;;;;;;;1.58;1.48;;;32.90;99.90;;;;;;5068716;28;20059;-77
2023/09/07 12:25:07;;;;;;;1.60;1.30;;;33.10;99.90;;;;;;5074075;28;20056;-77
2023/09/07 12:27:46;;;;;;;1.40;1.20;;;33.40;99.90;;;;;;5061955;28;20044;-77
2023/09/07 12:30:20;;;;;;;2.00;1.80;;;33.60;99.90;;;;;;5075970;28;20060;-77
2023/09/07 12:32:47;;;;;;;1.30;1.20;;;33.60;99.90;;;;;;5064723;28;20153;-77
2023/09/07 12:35:14;;;;;;;1.75;1.40;;;33.90;99.90;;;;;;5083497;28;20044;-77
2023/09/07 12:37:42;;;;;;;1.50;1.27;;;34.10;99.90;;;;;;5083739;28;20488;-77
2023/09/07 12:40:12;;;;;;;1.42;1.10;;;34.20;99.90;;;;;;5085834;28;20070;-78
2023/09/07 12:42:40;;;;;;;1.45;1.20;;;34.70;99.90;;;;;;5051559;28;20044;-77
2023/09/07 12:45:08;;;;;;;1.30;1.10;;;35.10;99.90;;;;;;5078731;28;20043;-78
2023/09/07 12:47:36;;;;;;;1.17;1.08;;;35.20;99.90;;;;;;5082041;28;20127;-78
2023/09/07 12:50:04;;;;;;;1.38;1.10;;;35.30;99.90;;;;;;5080888;28;20077;-77
2023/09/07 12:52:32;;;;;;;1.10;1.00;;;35.60;99.90;;;;;;5087568;28;20476;-78
2023/09/07 12:55:02;;;;;;;1.20;0.90;;;35.80;99.90;;;;;;5085108;28;20507;-78